Jonesboro, AR (72403)

8:32 PM CDT on May 22, 2015 (GMT -0500)
South Jonesboro | | Change Station
CLOSE
Current Station
Personal Weather Station
Location: Jonesboro, AR
Elevation: 358 ft
Nearby Weather Stations

Elev 358 ft 35.82 °N, 90.73 °W | Updated 18 minutes ago

Clear
Clear
64.9 °F
Feels Like 64.9 °F
N
0.0
Wind Variable Wind from WNW

Today
High -- | Low -- °F
--% Chance of Precip.
Yesterday
High -- | Low -- °F
Precip. -- in
5:52 AM 8:06 PM
Waxing Crescent, 25% visible
Pressure 30.22 in
Visibility 10.0 miles
Clouds Clear
Dew Point 51 °F
Humidity 61%
Rainfall 0.00 in
Snow Depth Not available.
UV 0 out of 12
Pollen 6.20 out of 12
Air Quality Not available.
Flu Activity No Activity
METAR KJBR 230053Z AUTO 09004KT 10SM CLR 18/11 A3023 RMK AO2 SLP234 T01830111

More Conditions Fewer Conditions

Pressure 30.22 in
Visibility 10.0 miles
Clouds Clear
Dew Point 51 °F
Humidity 61%
Rainfall 0.00 in
Snow Depth Not available.
UV 0 out of 12
Pollen 6.20 out of 12
Air Quality Not available.
Flu Activity No Activity
METAR KJBR 230053Z AUTO 09004KT 10SM CLR 18/11 A3023 RMK AO2 SLP234 T01830111

More Conditions Fewer Conditions

10-Day Weather Forecast

Almanac

Astronomy

May. 22, 2015 Rise Set
Actual Time
Civil Twilight
Nautical Twilight
Astronomical Twilight
Moon
Length of Visible Light
Length of Day
Tomorrow will be .
, % of the Moon is Illuminated

Today's Extremes

State Highs State Lows

Community

WunderPhotos

Upload Photos

1,823,357 photos uploaded!

WunderBlogs® & News

Nearby

Air Quality

  Air Quality AQ Index Pollutant
Not available.

Snow Depth

Station Depth Elevation

Earthquake Activity

City Distance Mag. Time & Date
Minimum magnitude displayed is 2.5.

Coastal Water Temperatures

Place Temperature

Stations

Nearby Weather Stations

Station Location Temp. Windchill Dew Point Humidity Wind Precip. Elev Updated Type